Time;durP1;ratioP1;P1;durP2;ratioP2;P2;SDS_P1;SDS_P2;PMS_P1;PMS_P2;Temp;Humidity;BMP_temperature;BMP_pressure;BME280_temperature;BME280_humidity;BME280_pressure;Samples;Min_cycle;Max_cycle;Signal;HPM_P1;HPM_P2
2021/09/01 00:00:17;;;;;;;2.53;1.70;;;19.40;74.20;;;;;;10577645;28;20595;-65
2021/09/01 00:05:40;;;;;;;1.77;1.63;;;19.40;73.60;;;;;;10579950;28;20563;-64
2021/09/01 00:11:02;;;;;;;2.63;2.00;;;19.40;73.30;;;;;;10579512;28;20575;-64
2021/09/01 00:16:27;;;;;;;2.43;2.10;;;19.40;73.80;;;;;;10581583;27;20219;-64
2021/09/01 00:21:51;;;;;;;2.57;2.00;;;19.40;73.70;;;;;;10579697;28;20256;-64
2021/09/01 00:27:13;;;;;;;2.50;1.90;;;19.40;74.30;;;;;;10577686;28;20583;-62
2021/09/01 00:32:36;;;;;;;2.43;2.00;;;19.40;74.20;;;;;;10577641;28;20663;-63
2021/09/01 00:37:59;;;;;;;3.13;1.70;;;19.40;73.60;;;;;;10578841;28;20290;-64
2021/09/01 00:43:22;;;;;;;2.37;1.90;;;19.40;73.70;;;;;;10578301;28;20194;-64
2021/09/01 00:48:44;;;;;;;2.67;1.90;;;19.40;74.10;;;;;;10577594;28;20227;-63
2021/09/01 00:54:10;;;;;;;2.47;1.97;;;19.40;73.70;;;;;;10579035;28;20489;-62
2021/09/01 00:59:34;;;;;;;3.10;2.17;;;19.40;73.60;;;;;;10578263;28;20622;-64
2021/09/01 01:04:56;;;;;;;2.77;2.00;;;19.40;74.10;;;;;;10576700;28;20202;-64
2021/09/01 01:10:19;;;;;;;2.47;2.03;;;19.40;73.50;;;;;;10577986;28;20214;-64
2021/09/01 01:15:41;;;;;;;2.00;1.73;;;19.50;73.70;;;;;;10577623;28;20218;-64
2021/09/01 01:21:04;;;;;;;2.50;1.97;;;19.40;74.10;;;;;;10576285;28;20199;-64
2021/09/01 01:26:28;;;;;;;2.50;1.70;;;19.40;73.60;;;;;;10576713;28;20683;-64
2021/09/01 01:31:50;;;;;;;3.57;1.87;;;19.40;74.00;;;;;;10554135;28;20206;-63
2021/09/01 01:37:12;;;;;;;2.50;1.80;;;19.40;74.30;;;;;;10574067;28;20233;-63
2021/09/01 01:42:40;;;;;;;2.47;1.90;;;19.40;73.40;;;;;;10538692;28;20207;-63
2021/09/01 01:48:03;;;;;;;2.50;1.87;;;19.40;73.90;;;;;;10564717;28;20230;-63
2021/09/01 01:53:25;;;;;;;1.90;1.50;;;19.40;74.20;;;;;;10575064;28;20674;-64
2021/09/01 01:58:49;;;;;;;1.90;1.63;;;19.40;73.30;;;;;;10576331;28;20218;-63
2021/09/01 02:04:11;;;;;;;2.27;1.77;;;19.40;73.60;;;;;;10576210;28;20202;-63
2021/09/01 02:09:33;;;;;;;2.63;1.80;;;19.40;74.00;;;;;;10576154;28;20214;-63
2021/09/01 02:14:56;;;;;;;2.47;1.73;;;19.40;73.40;;;;;;10574731;28;20198;-62
2021/09/01 02:20:18;;;;;;;2.40;1.83;;;19.40;73.80;;;;;;10575838;28;20217;-63
2021/09/01 02:25:40;;;;;;;2.47;1.87;;;19.40;74.10;;;;;;10555255;28;20261;-63
2021/09/01 02:31:04;;;;;;;2.50;1.63;;;19.40;73.50;;;;;;10574096;28;20198;-64
2021/09/01 02:36:26;;;;;;;2.20;1.77;;;19.40;73.80;;;;;;10574280;28;20246;-64
2021/09/01 02:41:48;;;;;;;2.53;1.63;;;19.40;74.20;;;;;;10574396;28;20206;-64
2021/09/01 02:47:11;;;;;;;3.00;2.00;;;19.40;73.40;;;;;;10574564;28;20219;-63
2021/09/01 02:52:33;;;;;;;2.70;2.07;;;19.40;73.70;;;;;;10582332;28;20199;-63
2021/09/01 02:57:56;;;;;;;1.73;1.63;;;19.40;74.10;;;;;;10582146;28;20215;-63
2021/09/01 03:03:19;;;;;;;2.07;1.87;;;19.40;73.60;;;;;;10583350;28;20575;-64
2021/09/01 03:08:41;;;;;;;3.13;1.90;;;19.40;74.60;;;;;;10582527;28;20222;-63
2021/09/01 03:14:03;;;;;;;2.13;1.57;;;19.40;74.20;;;;;;10582629;28;20199;-63
2021/09/01 03:19:27;;;;;;;3.10;1.97;;;19.40;73.70;;;;;;10581335;28;20221;-63
2021/09/01 03:24:49;;;;;;;2.03;1.83;;;19.40;74.20;;;;;;10577438;28;20199;-64
2021/09/01 03:30:12;;;;;;;2.73;1.80;;;19.30;74.10;;;;;;10550095;28;20213;-64
2021/09/01 03:35:36;;;;;;;2.23;1.83;;;19.40;73.60;;;;;;10581331;28;20194;-62
2021/09/01 03:40:58;;;;;;;3.50;1.50;;;19.40;74.10;;;;;;10579420;28;20202;-62
2021/09/01 03:46:20;;;;;;;2.37;1.90;;;19.30;73.90;;;;;;10580828;28;20226;-63
2021/09/01 03:51:44;;;;;;;2.37;1.93;;;19.40;73.70;;;;;;10580329;28;20210;-63
2021/09/01 03:57:06;;;;;;;1.83;1.60;;;19.40;74.20;;;;;;10580253;28;20232;-64
2021/09/01 04:02:28;;;;;;;2.30;2.10;;;19.40;73.80;;;;;;10578677;28;20190;-63
2021/09/01 04:07:51;;;;;;;2.50;1.87;;;19.40;74.00;;;;;;10579496;28;20219;-63
2021/09/01 04:13:13;;;;;;;1.70;1.60;;;19.40;74.40;;;;;;10580030;28;20575;-63
2021/09/01 04:18:35;;;;;;;1.73;1.63;;;19.40;73.60;;;;;;10579412;28;20730;-63
2021/09/01 04:23:59;;;;;;;1.60;1.50;;;19.40;73.80;;;;;;10578735;28;20685;-63
2021/09/01 04:29:21;;;;;;;3.53;2.07;;;19.40;74.20;;;;;;10579512;28;20218;-63
2021/09/01 04:34:43;;;;;;;2.20;1.83;;;19.40;73.50;;;;;;10577534;28;20202;-62
2021/09/01 04:40:08;;;;;;;2.27;1.73;;;19.40;73.70;;;;;;10576868;28;20221;-63
2021/09/01 04:45:30;;;;;;;1.63;1.53;;;19.40;74.00;;;;;;10578883;28;20574;-62
2021/09/01 04:50:53;;;;;;;1.97;1.60;;;19.40;73.50;;;;;;10578210;28;20198;-64
2021/09/01 04:56:16;;;;;;;2.93;1.80;;;19.40;73.80;;;;;;10577949;28;20460;-62
2021/09/01 05:01:38;;;;;;;1.60;1.50;;;19.30;74.10;;;;;;10574251;28;20210;-63
2021/09/01 05:07:00;;;;;;;2.00;1.60;;;19.40;73.50;;;;;;10575683;28;20214;-63
2021/09/01 05:12:26;;;;;;;1.93;1.80;;;19.40;73.60;;;;;;10577055;28;20721;-63
2021/09/01 05:17:49;;;;;;;2.53;1.63;;;19.30;74.10;;;;;;10571234;28;20564;-64
2021/09/01 05:23:11;;;;;;;1.67;1.57;;;19.30;73.50;;;;;;10570081;28;20199;-64
2021/09/01 05:28:35;;;;;;;2.30;1.67;;;19.40;73.50;;;;;;10572759;28;20663;-64
2021/09/01 05:34:02;;;;;;;2.77;1.67;;;19.30;73.90;;;;;;10570674;28;20187;-64
2021/09/01 05:39:25;;;;;;;2.23;1.60;;;19.30;73.70;;;;;;10576079;28;20710;-64
2021/09/01 05:44:49;;;;;;;2.67;1.90;;;19.30;73.90;;;;;;10575875;28;20205;-64
2021/09/01 05:50:11;;;;;;;2.77;1.73;;;19.40;74.30;;;;;;10561924;22;20734;-63
2021/09/01 05:55:35;;;;;;;2.23;1.70;;;19.30;73.40;;;;;;10516561;28;20195;-62
2021/09/01 06:01:03;;;;;;;1.77;1.37;;;19.40;73.70;;;;;;10534200;28;20269;-63
2021/09/01 06:06:28;;;;;;;1.60;1.50;;;19.40;74.10;;;;;;10534521;28;20207;-64
2021/09/01 06:11:54;;;;;;;1.80;1.57;;;19.40;73.50;;;;;;10532741;28;20410;-64
2021/09/01 06:17:17;;;;;;;3.03;1.97;;;19.30;74.00;;;;;;10537277;28;20219;-64
2021/09/01 06:22:39;;;;;;;2.40;1.50;;;19.30;74.20;;;;;;10551463;28;20195;-66
2021/09/01 06:28:03;;;;;;;2.17;1.80;;;19.40;73.40;;;;;;10542321;28;20208;-64
2021/09/01 06:33:26;;;;;;;1.50;1.40;;;19.40;74.00;;;;;;10501073;28;20664;-63
2021/09/01 06:38:48;;;;;;;1.60;1.50;;;19.30;74.10;;;;;;10544589;28;20219;-63
2021/09/01 06:44:11;;;;;;;2.00;1.70;;;19.30;73.20;;;;;;10540929;28;20195;-63
2021/09/01 06:49:34;;;;;;;2.00;1.63;;;19.30;73.90;;;;;;10539323;28;20219;-62
2021/09/01 06:54:56;;;;;;;2.67;1.77;;;19.40;74.20;;;;;;10537985;28;20219;-64
2021/09/01 07:00:20;;;;;;;2.77;1.60;;;19.30;73.20;;;;;;10539311;28;20219;-63
2021/09/01 07:05:43;;;;;;;2.13;1.80;;;19.40;73.20;;;;;;10525395;28;20425;-65
2021/09/01 07:11:05;;;;;;;2.53;2.00;;;19.80;72.20;;;;;;10523228;28;20583;-65
2021/09/01 07:16:27;;;;;;;3.97;1.87;;;19.60;72.70;;;;;;10538922;28;20564;-65
2021/09/01 07:21:51;;;;;;;3.27;1.80;;;19.50;73.10;;;;;;10538746;28;20203;-66
2021/09/01 07:27:13;;;;;;;7.70;2.40;;;19.40;73.90;;;;;;10531414;28;20224;-62
2021/09/01 07:32:35;;;;;;;2.93;1.57;;;19.40;73.50;;;;;;10525909;28;20196;-62
2021/09/01 07:37:59;;;;;;;2.43;1.83;;;19.40;72.60;;;;;;10532078;28;20228;-62
2021/09/01 07:43:25;;;;;;;3.00;2.07;;;19.40;73.20;;;;;;10531267;28;20651;-63
2021/09/01 07:48:47;;;;;;;2.33;1.57;;;19.40;73.50;;;;;;10519238;28;20228;-62
2021/09/01 07:54:11;;;;;;;2.30;1.90;;;19.40;72.50;;;;;;10537515;28;20257;-62
2021/09/01 07:59:33;;;;;;;3.43;1.90;;;19.40;73.10;;;;;;10537023;28;20224;-61
2021/09/01 08:04:55;;;;;;;3.70;2.20;;;19.30;73.40;;;;;;10535712;28;20211;-62
2021/09/01 08:10:18;;;;;;;2.23;1.93;;;19.30;73.20;;;;;;10502996;28;20231;-62
2021/09/01 08:15:40;;;;;;;2.43;1.70;;;19.40;73.00;;;;;;10536935;28;20199;-65
2021/09/01 08:21:03;;;;;;;2.80;2.20;;;19.30;73.50;;;;;;10513301;28;20923;-65
2021/09/01 08:26:26;;;;;;;3.67;2.10;;;19.30;73.60;;;;;;10535423;28;20215;-64
2021/09/01 08:31:48;;;;;;;4.03;2.37;;;19.40;72.60;;;;;;10534631;28;20207;-64
2021/09/01 08:37:10;;;;;;;4.50;2.57;;;19.40;73.40;;;;;;10536893;28;20215;-64
2021/09/01 08:42:34;;;;;;;3.60;2.10;;;19.30;73.70;;;;;;10536234;28;20202;-64
2021/09/01 08:47:57;;;;;;;2.67;2.00;;;19.30;72.90;;;;;;10532649;28;20223;-63
2021/09/01 08:53:19;;;;;;;5.23;2.50;;;19.30;73.10;;;;;;10536076;28;20199;-64
2021/09/01 08:58:43;;;;;;;3.23;2.40;;;19.30;73.50;;;;;;10535347;28;20228;-64
2021/09/01 09:04:05;;;;;;;4.10;2.37;;;19.30;73.50;;;;;;10536687;28;20203;-64
2021/09/01 09:09:29;;;;;;;4.17;2.37;;;19.30;72.80;;;;;;10534433;28;20212;-63
2021/09/01 09:14:53;;;;;;;4.40;1.90;;;19.30;73.40;;;;;;10524957;28;20581;-63
2021/09/01 09:20:15;;;;;;;4.27;2.50;;;19.30;73.70;;;;;;10534438;28;20227;-63
2021/09/01 09:25:38;;;;;;;2.93;2.07;;;19.30;72.60;;;;;;10512275;28;20206;-64
2021/09/01 09:31:02;;;;;;;3.60;2.50;;;19.30;73.20;;;;;;10498326;28;20225;-64
2021/09/01 09:36:24;;;;;;;4.63;2.53;;;19.40;73.50;;;;;;10522863;28;20192;-63
2021/09/01 09:41:53;;;;;;;5.47;2.80;;;19.30;73.20;;;;;;10534354;28;20184;-64
2021/09/01 09:47:17;;;;;;;3.80;2.47;;;19.30;73.10;;;;;;10534788;28;20227;-63
2021/09/01 09:52:40;;;;;;;5.67;3.00;;;19.40;73.50;;;;;;10533289;28;20199;-63
2021/09/01 09:58:02;;;;;;;4.70;2.50;;;19.30;73.60;;;;;;10490449;28;20219;-64
2021/09/01 10:03:26;;;;;;;4.37;2.60;;;19.30;72.60;;;;;;10502739;28;20206;-66
2021/09/01 10:08:50;;;;;;;5.43;2.43;;;19.40;73.70;;;;;;10511277;28;20291;-66
2021/09/01 10:14:16;;;;;;;4.77;3.20;;;19.30;73.80;;;;;;10529970;28;20196;-65
2021/09/01 10:19:40;;;;;;;5.70;3.00;;;19.40;73.90;;;;;;10534065;28;20702;-69
2021/09/01 10:25:03;;;;;;;6.10;3.43;;;19.30;73.80;;;;;;10511894;28;20706;-66
2021/09/01 10:30:26;;;;;;;4.40;3.00;;;19.30;74.40;;;;;;10521365;28;20240;-65
2021/09/01 10:35:49;;;;;;;4.77;3.27;;;19.30;74.20;;;;;;10532328;28;20195;-65
2021/09/01 10:41:11;;;;;;;6.07;3.23;;;19.40;73.50;;;;;;10532870;28;20588;-65
2021/09/01 10:46:59;;;;;;;5.63;3.20;;;19.30;74.20;;;;;;10532963;28;20569;-65
2021/09/01 10:52:23;;;;;;;5.60;3.33;;;19.30;74.10;;;;;;10503644;28;20215;-65
2021/09/01 10:58:05;;;;;;;9.50;4.57;;;19.30;73.30;;;;;;10533606;28;20596;-65
2021/09/01 11:03:29;;;;;;;10.47;4.27;;;19.40;74.10;;;;;;10525594;28;20330;-61
2021/09/01 11:09:01;;;;;;;11.87;4.97;;;19.30;74.30;;;;;;10493423;28;20619;-61
2021/09/01 11:14:33;;;;;;;10.77;4.60;;;19.40;73.60;;;;;;10499716;28;20206;-61
2021/09/01 11:19:59;;;;;;;9.50;4.70;;;19.40;73.60;;;;;;10537868;28;20273;-61
2021/09/01 11:25:26;;;;;;;10.10;4.73;;;19.40;73.80;;;;;;10499653;28;20188;-58
2021/09/01 11:30:48;;;;;;;8.93;4.53;;;19.40;74.00;;;;;;10533351;28;20207;-60
2021/09/01 11:36:10;;;;;;;9.63;4.37;;;19.40;73.20;;;;;;10538932;28;20199;-61
2021/09/01 11:41:33;;;;;;;8.07;4.50;;;19.40;74.10;;;;;;10547960;28;20211;-59
2021/09/01 11:51:56;;;;;;;6.27;3.70;;;19.40;73.30;;;;;;10513099;22;20298;-65
2021/09/01 11:57:25;;;;;;;9.37;4.60;;;19.40;73.50;;;;;;10494910;28;20326;-64
2021/09/01 12:02:50;;;;;;;6.20;4.10;;;19.40;74.10;;;;;;10533421;28;20196;-63
2021/09/01 12:08:16;;;;;;;6.70;3.87;;;19.40;73.90;;;;;;10535297;28;20698;-64
2021/09/01 12:13:41;;;;;;;6.53;3.90;;;19.40;73.40;;;;;;10536840;28;20273;-63
2021/09/01 12:19:11;;;;;;;7.40;3.80;;;19.40;74.00;;;;;;10536481;28;20215;-62
2021/09/01 12:24:35;;;;;;;5.63;3.90;;;19.40;74.30;;;;;;10571952;28;20206;-62
2021/09/01 12:29:59;;;;;;;5.93;3.70;;;19.40;73.10;;;;;;10549753;28;20219;-61
2021/09/01 12:35:21;;;;;;;9.90;4.23;;;19.40;73.70;;;;;;10536831;28;20200;-62
2021/09/01 12:40:43;;;;;;;5.67;3.57;;;19.40;74.10;;;;;;10513516;28;20220;-62
2021/09/01 12:46:06;;;;;;;5.93;3.50;;;19.40;73.70;;;;;;10523992;28;20252;-62
2021/09/01 12:51:29;;;;;;;5.70;3.67;;;19.40;73.40;;;;;;10528823;28;20237;-62
2021/09/01 12:56:51;;;;;;;7.47;3.83;;;19.40;74.00;;;;;;10530411;28;20241;-60
2021/09/01 13:02:15;;;;;;;6.40;4.07;;;19.30;74.40;;;;;;10523780;28;20592;-61
2021/09/01 13:07:37;;;;;;;6.83;3.90;;;19.40;73.50;;;;;;10494109;28;20217;-54
2021/09/01 13:13:00;;;;;;;5.83;4.00;;;19.40;72.90;;;;;;10489301;28;20211;-63
2021/09/01 13:18:23;;;;;;;5.53;4.27;;;19.40;73.70;;;;;;10498236;28;20245;-63
2021/09/01 13:23:45;;;;;;;7.47;4.00;;;19.40;74.40;;;;;;10530142;28;20699;-63
2021/09/01 13:29:07;;;;;;;7.00;3.80;;;19.40;73.30;;;;;;10527227;28;20589;-60
2021/09/01 13:34:31;;;;;;;8.53;4.20;;;19.40;73.00;;;;;;10530818;28;20207;-64
2021/09/01 13:39:53;;;;;;;10.63;4.70;;;19.40;74.00;;;;;;10493040;28;20520;-65
2021/09/01 13:45:15;;;;;;;8.17;4.13;;;19.40;74.20;;;;;;10488752;28;20196;-64
2021/09/01 13:50:38;;;;;;;7.07;4.43;;;19.40;73.10;;;;;;10525244;28;20220;-57
2021/09/01 13:56:03;;;;;;;9.97;4.67;;;19.40;72.20;;;;;;10518070;28;20197;-58
2021/09/01 14:01:26;;;;;;;9.77;5.13;;;19.50;72.80;;;;;;10532371;28;20698;-52
2021/09/01 14:06:49;;;;;;;8.50;4.23;;;19.40;73.10;;;;;;10533200;28;20572;-60
2021/09/01 14:12:11;;;;;;;7.30;4.00;;;19.50;72.90;;;;;;10532324;28;20691;-57
2021/09/01 14:17:33;;;;;;;5.70;3.67;;;19.50;72.00;;;;;;10522683;28;20216;-59
2021/09/01 14:22:57;;;;;;;6.10;3.83;;;19.50;72.40;;;;;;10548823;28;20559;-61
2021/09/01 14:28:19;;;;;;;6.90;4.17;;;19.50;72.90;;;;;;10550039;28;20762;-60
2021/09/01 14:33:42;;;;;;;5.87;3.93;;;19.50;73.20;;;;;;10526826;28;20679;-60
2021/09/01 14:39:05;;;;;;;5.00;3.73;;;19.50;72.20;;;;;;10527121;28;20224;-60
2021/09/01 14:44:27;;;;;;;3.93;3.23;;;19.50;71.50;;;;;;10489588;28;20204;-60
2021/09/01 14:49:49;;;;;;;4.70;3.73;;;19.50;72.30;;;;;;10493407;28;20247;-62
2021/09/01 14:55:13;;;;;;;4.43;3.50;;;19.50;72.70;;;;;;10512895;28;20579;-60
2021/09/01 15:00:36;;;;;;;5.37;4.27;;;19.50;72.80;;;;;;10521212;28;20238;-60
2021/09/01 15:05:58;;;;;;;4.53;3.57;;;19.50;72.00;;;;;;10512581;28;20317;-60
2021/09/01 15:11:21;;;;;;;5.43;3.80;;;19.50;71.40;;;;;;10490005;28;20219;-59
2021/09/01 15:16:44;;;;;;;4.93;4.03;;;19.50;72.30;;;;;;10529489;28;20576;-62
2021/09/01 15:22:06;;;;;;;5.43;4.27;;;19.50;72.70;;;;;;10547686;28;20245;-62
2021/09/01 15:27:29;;;;;;;4.43;3.97;;;19.50;72.70;;;;;;10567880;28;20216;-61
2021/09/01 15:32:51;;;;;;;6.20;3.97;;;19.50;71.70;;;;;;10533399;28;20643;-63
2021/09/01 15:38:13;;;;;;;5.77;3.77;;;19.50;72.20;;;;;;10573132;28;20226;-60
2021/09/01 15:43:39;;;;;;;4.97;3.87;;;19.50;72.60;;;;;;10533987;28;20200;-61
2021/09/01 15:49:04;;;;;;;4.87;3.77;;;19.50;73.00;;;;;;10532180;28;20290;-60
2021/09/01 15:54:26;;;;;;;4.97;3.90;;;19.50;72.10;;;;;;10531219;28;20208;-59
2021/09/01 15:59:51;;;;;;;4.17;3.53;;;19.50;72.00;;;;;;10491081;28;20720;-63
2021/09/01 16:05:14;;;;;;;6.30;3.53;;;19.50;72.80;;;;;;10496696;28;20733;-64
2021/09/01 16:10:37;;;;;;;8.20;4.37;;;19.50;73.40;;;;;;10512296;28;20213;-64
2021/09/01 16:16:06;;;;;;;6.85;4.78;;;19.50;73.00;;;;;;10528513;28;20505;-64
2021/09/01 16:21:30;;;;;;;5.50;3.90;;;19.90;71.60;;;;;;10540824;28;20215;-64
2021/09/01 16:26:53;;;;;;;8.10;4.50;;;19.70;72.10;;;;;;10542663;28;20203;-66
2021/09/01 16:32:18;;;;;;;5.07;3.60;;;19.60;72.70;;;;;;10530498;28;20207;-65
2021/09/01 16:37:49;;;;;;;5.47;3.83;;;19.50;72.40;;;;;;10530363;28;20234;-66
2021/09/01 16:43:13;;;;;;;6.50;3.73;;;19.60;71.70;;;;;;10530625;28;20258;-65
2021/09/01 16:48:38;;;;;;;6.00;3.60;;;19.60;71.10;;;;;;10530738;28;20220;-66
2021/09/01 16:54:02;;;;;;;5.97;3.40;;;19.60;70.80;;;;;;10532199;28;20199;-65
2021/09/01 16:59:29;;;;;;;5.97;3.93;;;19.60;72.00;;;;;;10529966;28;20841;-65
2021/09/01 17:04:55;;;;;;;6.33;4.03;;;19.60;72.60;;;;;;10530050;28;20596;-67
2021/09/01 17:10:18;;;;;;;5.07;3.70;;;19.50;71.80;;;;;;10529265;28;20565;-65
2021/09/01 17:15:41;;;;;;;4.30;3.60;;;19.60;71.10;;;;;;10529662;28;20204;-66
2021/09/01 17:21:06;;;;;;;3.70;3.30;;;19.60;70.60;;;;;;10528463;28;20227;-66
2021/09/01 17:26:29;;;;;;;5.03;3.93;;;19.60;70.40;;;;;;10528609;28;20191;-66
2021/09/01 17:31:53;;;;;;;5.07;3.57;;;19.60;71.50;;;;;;10510232;28;20226;-66
2021/09/01 17:37:18;;;;;;;4.03;3.50;;;19.50;72.00;;;;;;10528602;28;20199;-65
2021/09/01 17:42:42;;;;;;;3.97;3.23;;;19.50;71.30;;;;;;10528202;28;20708;-67
2021/09/01 17:48:06;;;;;;;3.70;3.20;;;19.60;70.60;;;;;;10528112;28;20219;-66
2021/09/01 17:53:30;;;;;;;3.20;2.90;;;19.60;70.10;;;;;;10528578;28;20214;-65
2021/09/01 17:58:53;;;;;;;4.20;3.57;;;19.60;71.10;;;;;;10488921;22;20256;-66
2021/09/01 18:04:15;;;;;;;4.57;3.60;;;19.60;71.60;;;;;;10426620;28;20205;-68
2021/09/01 18:09:39;;;;;;;4.47;3.40;;;19.50;71.50;;;;;;10411444;28;20654;-67
2021/09/01 18:15:01;;;;;;;5.30;3.30;;;19.60;70.80;;;;;;10409936;28;20690;-65
2021/09/01 18:20:23;;;;;;;4.37;3.23;;;19.60;70.10;;;;;;10414224;28;20590;-67
2021/09/01 18:25:48;;;;;;;4.47;3.30;;;19.60;71.30;;;;;;10418674;28;20217;-66
2021/09/01 18:31:11;;;;;;;4.20;3.43;;;19.60;71.70;;;;;;10417969;28;20256;-67
2021/09/01 18:36:33;;;;;;;4.93;3.50;;;19.60;71.20;;;;;;10418313;28;20221;-67
2021/09/01 18:42:01;;;;;;;4.17;3.67;;;19.60;70.50;;;;;;10417089;28;20209;-67
2021/09/01 18:47:23;;;;;;;3.63;3.30;;;19.60;70.70;;;;;;10418445;28;20214;-67
2021/09/01 18:52:45;;;;;;;4.40;3.30;;;19.60;71.60;;;;;;10418009;28;20198;-65
2021/09/01 18:58:09;;;;;;;5.27;3.47;;;19.60;71.60;;;;;;10418160;28;20309;-66
2021/09/01 19:03:43;;;;;;;3.33;3.03;;;19.60;70.80;;;;;;10416358;28;20582;-67
2021/09/01 19:09:10;;;;;;;4.10;3.27;;;19.60;70.70;;;;;;10417046;28;20712;-67
2021/09/01 19:14:38;;;;;;;3.73;3.20;;;19.60;71.60;;;;;;10416895;28;20290;-67
2021/09/01 19:20:00;;;;;;;3.70;3.30;;;19.60;72.00;;;;;;10412816;28;20212;-67
2021/09/01 19:25:22;;;;;;;4.70;4.07;;;19.60;71.00;;;;;;10404386;28;21504;-67
2021/09/01 19:30:45;;;;;;;4.13;3.23;;;20.10;70.00;;;;;;10411579;28;20190;-66
2021/09/01 19:36:09;;;;;;;4.13;3.03;;;19.80;71.00;;;;;;10417707;28;20263;-67
2021/09/01 19:41:32;;;;;;;4.10;3.47;;;19.70;71.30;;;;;;10412798;28;20224;-67
2021/09/01 19:46:56;;;;;;;3.90;3.50;;;19.70;70.60;;;;;;10414729;28;20213;-68
2021/09/01 19:52:20;;;;;;;4.27;3.20;;;19.70;71.30;;;;;;10415085;28;20189;-68
2021/09/01 19:57:42;;;;;;;3.30;2.97;;;19.60;71.70;;;;;;10414119;28;20589;-67
2021/09/01 20:03:08;;;;;;;3.70;3.40;;;19.60;71.60;;;;;;10413426;28;20221;-67
2021/09/01 20:08:30;;;;;;;3.70;3.30;;;19.60;70.60;;;;;;10414191;28;20594;-67
2021/09/01 20:13:53;;;;;;;3.20;2.90;;;19.70;70.50;;;;;;10415174;28;20193;-66
2021/09/01 20:19:16;;;;;;;3.20;2.90;;;19.60;71.40;;;;;;10414161;28;20233;-66
2021/09/01 20:24:39;;;;;;;4.03;3.10;;;19.60;71.90;;;;;;10414859;28;20208;-66
2021/09/01 20:30:02;;;;;;;4.17;3.50;;;19.60;71.00;;;;;;10406866;28;20582;-67
2021/09/01 20:35:25;;;;;;;3.50;2.90;;;19.60;70.30;;;;;;10414062;28;20213;-67
2021/09/01 20:40:49;;;;;;;4.40;3.40;;;19.70;69.90;;;;;;10412725;28;20221;-67
2021/09/01 20:46:15;;;;;;;4.07;3.13;;;19.70;70.60;;;;;;10413409;28;20224;-67
2021/09/01 20:51:39;;;;;;;3.77;3.20;;;19.60;71.30;;;;;;10413040;28;20197;-68
2021/09/01 20:57:04;;;;;;;6.33;2.90;;;19.60;71.50;;;;;;10412801;28;20601;-68
2021/09/01 21:02:26;;;;;;;4.27;3.30;;;19.70;70.70;;;;;;10411859;28;20218;-67
2021/09/01 21:07:50;;;;;;;4.13;2.93;;;19.70;70.10;;;;;;10412718;28;20226;-66
2021/09/01 21:13:13;;;;;;;4.43;3.13;;;19.70;69.80;;;;;;10435488;28;20675;-68
2021/09/01 21:18:41;;;;;;;4.77;3.37;;;19.70;70.30;;;;;;10412374;28;20586;-66
2021/09/01 21:24:07;;;;;;;3.93;2.80;;;19.70;71.20;;;;;;10435305;28;20610;-68
2021/09/01 21:29:36;;;;;;;3.40;2.90;;;19.70;71.70;;;;;;10396383;28;20193;-67
2021/09/01 21:34:59;;;;;;;4.33;2.97;;;19.60;70.70;;;;;;10376398;28;20690;-68
2021/09/01 21:40:23;;;;;;;4.03;3.10;;;19.70;70.10;;;;;;10452943;28;20223;-68
2021/09/01 21:45:45;;;;;;;5.10;3.57;;;19.70;71.20;;;;;;10413741;28;20220;-66
2021/09/01 21:51:07;;;;;;;4.93;3.30;;;19.60;71.60;;;;;;10410299;28;20194;-68
2021/09/01 21:56:32;;;;;;;3.13;2.70;;;19.60;71.40;;;;;;10409423;28;20764;-67
2021/09/01 22:01:54;;;;;;;4.50;3.07;;;19.60;70.50;;;;;;10409678;28;20214;-68
2021/09/01 22:07:16;;;;;;;5.13;3.13;;;19.70;70.00;;;;;;10409283;28;20221;-68
2021/09/01 22:12:41;;;;;;;3.63;3.17;;;19.70;71.10;;;;;;10410833;28;20197;-67
2021/09/01 22:18:03;;;;;;;3.83;3.10;;;19.60;71.50;;;;;;10409321;28;20232;-68
2021/09/01 22:23:25;;;;;;;4.27;3.03;;;19.60;71.60;;;;;;10410673;28;20220;-67
2021/09/01 22:28:48;;;;;;;3.23;2.53;;;19.60;70.60;;;;;;10410332;28;20220;-68
2021/09/01 22:34:10;;;;;;;4.73;2.80;;;19.70;70.10;;;;;;10410032;28;20578;-67
2021/09/01 22:39:33;;;;;;;3.87;2.90;;;19.70;70.40;;;;;;10411870;28;20217;-68
2021/09/01 22:44:56;;;;;;;4.23;3.10;;;19.60;71.30;;;;;;10409261;28;20214;-68
2021/09/01 22:50:19;;;;;;;5.40;3.27;;;19.60;71.70;;;;;;10410320;28;20213;-68
2021/09/01 22:55:41;;;;;;;3.20;2.50;;;19.60;70.70;;;;;;10409823;28;20594;-68
2021/09/01 23:01:04;;;;;;;5.20;3.00;;;19.60;70.00;;;;;;10409401;28;20253;-68
2021/09/01 23:06:26;;;;;;;5.07;3.23;;;19.60;71.30;;;;;;10413867;28;20243;-68
2021/09/01 23:11:48;;;;;;;4.93;3.47;;;19.60;71.60;;;;;;10417015;28;20685;-67
2021/09/01 23:17:12;;;;;;;4.80;3.20;;;19.60;71.40;;;;;;10416557;28;20205;-68
2021/09/01 23:22:34;;;;;;;4.87;2.93;;;19.60;70.50;;;;;;10416938;28;20225;-67
2021/09/01 23:27:56;;;;;;;4.43;2.73;;;19.60;71.10;;;;;;10416456;28;20676;-67
2021/09/01 23:33:20;;;;;;;4.07;3.10;;;19.60;71.60;;;;;;10409321;28;20678;-68
2021/09/01 23:38:42;;;;;;;5.50;3.20;;;19.60;72.00;;;;;;10415648;28;20221;-68
2021/09/01 23:44:04;;;;;;;5.70;3.00;;;19.60;71.00;;;;;;10415762;28;20225;-68
2021/09/01 23:49:27;;;;;;;4.53;3.03;;;19.60;71.00;;;;;;10385173;28;20204;-68
2021/09/01 23:59:53;;;;;;;4.63;3.20;;;19.60;72.20;;;;;;10483489;22;20236;-69
